sensor_id;sensor_type;location;lat;lon;timestamp;temperature;humidity
44431;DHT22;30135;47.866;-4.222;2023-05-29T00:01:25;18.30;63.70
44431;DHT22;30135;47.866;-4.222;2023-05-29T00:03:52;18.30;63.90
44431;DHT22;30135;47.866;-4.222;2023-05-29T00:06:18;18.30;63.90
44431;DHT22;30135;47.866;-4.222;2023-05-29T00:08:45;18.30;64.10
44431;DHT22;30135;47.866;-4.222;2023-05-29T00:11:11;18.30;64.20
44431;DHT22;30135;47.866;-4.222;2023-05-29T00:13:38;18.30;64.30
44431;DHT22;30135;47.866;-4.222;2023-05-29T00:16:06;18.30;64.40
44431;DHT22;30135;47.866;-4.222;2023-05-29T00:18:32;18.20;64.30
44431;DHT22;30135;47.866;-4.222;2023-05-29T00:20:58;18.20;64.50
44431;DHT22;30135;47.866;-4.222;2023-05-29T00:23:24;18.20;64.50
44431;DHT22;30135;47.866;-4.222;2023-05-29T00:25:50;18.20;64.70
44431;DHT22;30135;47.866;-4.222;2023-05-29T00:28:16;18.20;64.80
44431;DHT22;30135;47.866;-4.222;2023-05-29T00:30:42;18.20;64.80
44431;DHT22;30135;47.866;-4.222;2023-05-29T00:33:08;18.10;64.80
44431;DHT22;30135;47.866;-4.222;2023-05-29T00:35:33;18.10;64.90
44431;DHT22;30135;47.866;-4.222;2023-05-29T00:37:59;18.10;65.00
44431;DHT22;30135;47.866;-4.222;2023-05-29T00:40:26;18.10;65.00
44431;DHT22;30135;47.866;-4.222;2023-05-29T00:42:52;18.10;65.10
44431;DHT22;30135;47.866;-4.222;2023-05-29T00:45:18;18.10;65.30
44431;DHT22;30135;47.866;-4.222;2023-05-29T00:47:44;18.10;65.40
44431;DHT22;30135;47.866;-4.222;2023-05-29T00:50:14;18.00;65.50
44431;DHT22;30135;47.866;-4.222;2023-05-29T00:52:44;18.00;65.50
44431;DHT22;30135;47.866;-4.222;2023-05-29T00:55:11;18.00;65.60
44431;DHT22;30135;47.866;-4.222;2023-05-29T00:57:37;18.00;65.70
44431;DHT22;30135;47.866;-4.222;2023-05-29T01:00:06;18.00;65.80
44431;DHT22;30135;47.866;-4.222;2023-05-29T01:02:34;18.00;65.80
44431;DHT22;30135;47.866;-4.222;2023-05-29T01:05:02;18.00;66.10
44431;DHT22;30135;47.866;-4.222;2023-05-29T01:07:28;17.90;65.90
44431;DHT22;30135;47.866;-4.222;2023-05-29T01:09:54;17.90;66.00
44431;DHT22;30135;47.866;-4.222;2023-05-29T01:16:16;17.90;66.10
44431;DHT22;30135;47.866;-4.222;2023-05-29T01:18:57;17.90;66.20
44431;DHT22;30135;47.866;-4.222;2023-05-29T01:21:48;17.90;66.20
44431;DHT22;30135;47.866;-4.222;2023-05-29T01:27:18;17.80;66.30
44431;DHT22;30135;47.866;-4.222;2023-05-29T01:29:46;17.80;66.40
44431;DHT22;30135;47.866;-4.222;2023-05-29T01:32:13;17.80;66.40
44431;DHT22;30135;47.866;-4.222;2023-05-29T01:34:39;17.80;66.40
44431;DHT22;30135;47.866;-4.222;2023-05-29T01:37:05;17.70;66.40
44431;DHT22;30135;47.866;-4.222;2023-05-29T01:39:32;17.70;66.50
44431;DHT22;30135;47.866;-4.222;2023-05-29T01:41:59;17.70;66.60
44431;DHT22;30135;47.866;-4.222;2023-05-29T01:44:27;17.70;66.70
44431;DHT22;30135;47.866;-4.222;2023-05-29T01:46:55;17.70;66.70
44431;DHT22;30135;47.866;-4.222;2023-05-29T01:49:24;17.70;66.80
44431;DHT22;30135;47.866;-4.222;2023-05-29T01:51:50;17.60;66.80
44431;DHT22;30135;47.866;-4.222;2023-05-29T01:54:16;17.60;66.80
44431;DHT22;30135;47.866;-4.222;2023-05-29T01:56:43;17.60;66.90
44431;DHT22;30135;47.866;-4.222;2023-05-29T01:59:10;17.60;67.00
44431;DHT22;30135;47.866;-4.222;2023-05-29T02:01:39;17.50;67.00
44431;DHT22;30135;47.866;-4.222;2023-05-29T02:04:05;17.60;67.10
44431;DHT22;30135;47.866;-4.222;2023-05-29T02:06:31;17.50;67.10
44431;DHT22;30135;47.866;-4.222;2023-05-29T02:08:58;17.50;67.10
44431;DHT22;30135;47.866;-4.222;2023-05-29T02:11:25;17.50;67.20
44431;DHT22;30135;47.866;-4.222;2023-05-29T02:13:53;17.50;67.30
44431;DHT22;30135;47.866;-4.222;2023-05-29T02:16:20;17.50;67.40
44431;DHT22;30135;47.866;-4.222;2023-05-29T02:18:46;17.50;67.40
44431;DHT22;30135;47.866;-4.222;2023-05-29T02:21:13;17.50;67.50
44431;DHT22;30135;47.866;-4.222;2023-05-29T02:23:39;17.50;67.60
44431;DHT22;30135;47.866;-4.222;2023-05-29T02:26:05;17.40;67.50
44431;DHT22;30135;47.866;-4.222;2023-05-29T02:28:31;17.40;67.50
44431;DHT22;30135;47.866;-4.222;2023-05-29T02:30:57;17.40;67.60
44431;DHT22;30135;47.866;-4.222;2023-05-29T02:33:23;17.40;67.70
44431;DHT22;30135;47.866;-4.222;2023-05-29T02:35:49;17.40;67.80
44431;DHT22;30135;47.866;-4.222;2023-05-29T02:38:15;17.40;67.90
44431;DHT22;30135;47.866;-4.222;2023-05-29T02:40:41;17.40;68.80
44431;DHT22;30135;47.866;-4.222;2023-05-29T02:43:08;17.40;68.00
44431;DHT22;30135;47.866;-4.222;2023-05-29T02:45:38;17.40;68.10
44431;DHT22;30135;47.866;-4.222;2023-05-29T02:48:04;17.40;68.20
44431;DHT22;30135;47.866;-4.222;2023-05-29T02:50:31;17.40;68.20
44431;DHT22;30135;47.866;-4.222;2023-05-29T02:52:57;17.30;68.20
44431;DHT22;30135;47.866;-4.222;2023-05-29T02:55:23;17.30;68.30
44431;DHT22;30135;47.866;-4.222;2023-05-29T02:57:49;17.30;68.40
44431;DHT22;30135;47.866;-4.222;2023-05-29T03:00:18;17.40;68.40
44431;DHT22;30135;47.866;-4.222;2023-05-29T03:02:44;17.30;68.40
44431;DHT22;30135;47.866;-4.222;2023-05-29T03:05:10;17.30;68.40
44431;DHT22;30135;47.866;-4.222;2023-05-29T03:07:37;17.30;68.50
44431;DHT22;30135;47.866;-4.222;2023-05-29T03:10:03;17.30;68.60
44431;DHT22;30135;47.866;-4.222;2023-05-29T03:12:29;17.30;68.60
44431;DHT22;30135;47.866;-4.222;2023-05-29T03:14:55;17.30;68.60
44431;DHT22;30135;47.866;-4.222;2023-05-29T03:17:22;17.30;68.70
44431;DHT22;30135;47.866;-4.222;2023-05-29T03:19:48;17.30;68.80
44431;DHT22;30135;47.866;-4.222;2023-05-29T03:22:14;17.20;68.80
44431;DHT22;30135;47.866;-4.222;2023-05-29T03:24:40;17.30;69.00
44431;DHT22;30135;47.866;-4.222;2023-05-29T03:27:06;17.20;68.90
44431;DHT22;30135;47.866;-4.222;2023-05-29T03:29:32;17.20;69.00
44431;DHT22;30135;47.866;-4.222;2023-05-29T03:31:58;17.20;69.00
44431;DHT22;30135;47.866;-4.222;2023-05-29T03:34:24;17.20;69.00
44431;DHT22;30135;47.866;-4.222;2023-05-29T03:36:50;17.10;69.00
44431;DHT22;30135;47.866;-4.222;2023-05-29T03:39:16;17.10;69.10
44431;DHT22;30135;47.866;-4.222;2023-05-29T03:41:42;17.10;69.20
44431;DHT22;30135;47.866;-4.222;2023-05-29T03:44:08;17.10;69.30
44431;DHT22;30135;47.866;-4.222;2023-05-29T03:46:35;17.10;69.40
44431;DHT22;30135;47.866;-4.222;2023-05-29T03:49:01;17.00;69.40
44431;DHT22;30135;47.866;-4.222;2023-05-29T03:51:27;17.00;69.50
44431;DHT22;30135;47.866;-4.222;2023-05-29T03:53:53;17.00;69.60
44431;DHT22;30135;47.866;-4.222;2023-05-29T03:56:19;17.00;69.70
44431;DHT22;30135;47.866;-4.222;2023-05-29T03:58:45;17.00;69.80
44431;DHT22;30135;47.866;-4.222;2023-05-29T04:01:11;16.90;69.80
44431;DHT22;30135;47.866;-4.222;2023-05-29T04:03:37;17.00;70.00
44431;DHT22;30135;47.866;-4.222;2023-05-29T04:06:03;16.90;70.10
44431;DHT22;30135;47.866;-4.222;2023-05-29T04:08:30;16.90;70.10
44431;DHT22;30135;47.866;-4.222;2023-05-29T04:10:56;16.90;70.20
44431;DHT22;30135;47.866;-4.222;2023-05-29T04:13:22;16.90;70.30
44431;DHT22;30135;47.866;-4.222;2023-05-29T04:15:50;16.80;70.40
44431;DHT22;30135;47.866;-4.222;2023-05-29T04:18:18;16.80;70.60
44431;DHT22;30135;47.866;-4.222;2023-05-29T04:20:44;16.80;70.80
44431;DHT22;30135;47.866;-4.222;2023-05-29T04:23:13;16.80;70.80
44431;DHT22;30135;47.866;-4.222;2023-05-29T04:25:39;16.80;71.00
44431;DHT22;30135;47.866;-4.222;2023-05-29T04:28:05;16.80;71.20
44431;DHT22;30135;47.866;-4.222;2023-05-29T04:30:31;16.80;71.30
44431;DHT22;30135;47.866;-4.222;2023-05-29T04:32:59;16.70;71.50
44431;DHT22;30135;47.866;-4.222;2023-05-29T04:35:25;16.70;71.50
44431;DHT22;30135;47.866;-4.222;2023-05-29T04:37:54;16.70;71.60
44431;DHT22;30135;47.866;-4.222;2023-05-29T04:40:22;16.70;71.70
44431;DHT22;30135;47.866;-4.222;2023-05-29T04:42:48;16.70;71.80
44431;DHT22;30135;47.866;-4.222;2023-05-29T04:45:14;16.70;72.00
44431;DHT22;30135;47.866;-4.222;2023-05-29T04:47:40;16.70;72.10
44431;DHT22;30135;47.866;-4.222;2023-05-29T04:50:16;16.70;72.20
44431;DHT22;30135;47.866;-4.222;2023-05-29T04:52:43;16.70;72.30
44431;DHT22;30135;47.866;-4.222;2023-05-29T04:55:10;16.70;73.20
44431;DHT22;30135;47.866;-4.222;2023-05-29T04:57:36;16.70;72.50
44431;DHT22;30135;47.866;-4.222;2023-05-29T05:00:03;16.70;72.60
44431;DHT22;30135;47.866;-4.222;2023-05-29T05:02:41;16.70;72.80
44431;DHT22;30135;47.866;-4.222;2023-05-29T05:05:09;16.60;72.90
44431;DHT22;30135;47.866;-4.222;2023-05-29T05:07:35;16.60;73.10
44431;DHT22;30135;47.866;-4.222;2023-05-29T05:10:03;16.60;73.30
44431;DHT22;30135;47.866;-4.222;2023-05-29T05:12:29;16.60;73.30
44431;DHT22;30135;47.866;-4.222;2023-05-29T05:14:55;16.60;73.50
44431;DHT22;30135;47.866;-4.222;2023-05-29T05:17:21;16.60;74.00
44431;DHT22;30135;47.866;-4.222;2023-05-29T05:19:47;16.60;73.90
44431;DHT22;30135;47.866;-4.222;2023-05-29T05:22:18;16.60;74.00
44431;DHT22;30135;47.866;-4.222;2023-05-29T05:24:44;16.60;74.10
44431;DHT22;30135;47.866;-4.222;2023-05-29T05:27:11;16.60;74.20
44431;DHT22;30135;47.866;-4.222;2023-05-29T05:29:37;16.60;74.30
44431;DHT22;30135;47.866;-4.222;2023-05-29T05:32:04;16.60;74.50
44431;DHT22;30135;47.866;-4.222;2023-05-29T05:34:30;16.60;74.60
44431;DHT22;30135;47.866;-4.222;2023-05-29T05:36:56;16.60;74.80
44431;DHT22;30135;47.866;-4.222;2023-05-29T05:39:21;16.60;74.80
44431;DHT22;30135;47.866;-4.222;2023-05-29T05:41:48;16.70;75.00
44431;DHT22;30135;47.866;-4.222;2023-05-29T05:44:14;16.70;75.20
44431;DHT22;30135;47.866;-4.222;2023-05-29T05:46:40;16.70;75.20
44431;DHT22;30135;47.866;-4.222;2023-05-29T05:49:06;16.70;75.30
44431;DHT22;30135;47.866;-4.222;2023-05-29T05:51:32;16.70;75.50
44431;DHT22;30135;47.866;-4.222;2023-05-29T05:53:58;16.70;75.60
44431;DHT22;30135;47.866;-4.222;2023-05-29T05:56:24;16.70;75.70
44431;DHT22;30135;47.866;-4.222;2023-05-29T05:58:51;16.70;75.70
44431;DHT22;30135;47.866;-4.222;2023-05-29T06:01:17;16.70;75.80
44431;DHT22;30135;47.866;-4.222;2023-05-29T06:03:44;16.70;75.80
44431;DHT22;30135;47.866;-4.222;2023-05-29T06:06:10;16.80;75.90
44431;DHT22;30135;47.866;-4.222;2023-05-29T06:08:36;16.80;76.00
44431;DHT22;30135;47.866;-4.222;2023-05-29T06:11:03;16.80;76.00
44431;DHT22;30135;47.866;-4.222;2023-05-29T06:13:29;16.80;76.00
44431;DHT22;30135;47.866;-4.222;2023-05-29T06:15:55;16.80;76.10
44431;DHT22;30135;47.866;-4.222;2023-05-29T06:18:21;16.80;76.10
44431;DHT22;30135;47.866;-4.222;2023-05-29T06:20:47;16.90;76.20
44431;DHT22;30135;47.866;-4.222;2023-05-29T06:23:13;16.90;76.30
44431;DHT22;30135;47.866;-4.222;2023-05-29T06:25:39;16.90;76.40
44431;DHT22;30135;47.866;-4.222;2023-05-29T06:28:06;16.80;76.20
44431;DHT22;30135;47.866;-4.222;2023-05-29T06:30:32;16.90;76.30
44431;DHT22;30135;47.866;-4.222;2023-05-29T06:32:59;16.90;76.30
44431;DHT22;30135;47.866;-4.222;2023-05-29T06:35:24;16.90;76.40
44431;DHT22;30135;47.866;-4.222;2023-05-29T06:37:50;17.00;76.40
44431;DHT22;30135;47.866;-4.222;2023-05-29T06:40:17;16.90;76.30
44431;DHT22;30135;47.866;-4.222;2023-05-29T06:42:43;17.00;76.40
44431;DHT22;30135;47.866;-4.222;2023-05-29T06:45:11;17.00;76.40
44431;DHT22;30135;47.866;-4.222;2023-05-29T06:47:43;17.00;76.40
44431;DHT22;30135;47.866;-4.222;2023-05-29T06:50:10;17.10;76.40
44431;DHT22;30135;47.866;-4.222;2023-05-29T06:52:36;17.10;76.40
44431;DHT22;30135;47.866;-4.222;2023-05-29T06:55:02;17.10;76.30
44431;DHT22;30135;47.866;-4.222;2023-05-29T06:57:28;17.10;76.40
44431;DHT22;30135;47.866;-4.222;2023-05-29T06:59:54;17.20;76.60
44431;DHT22;30135;47.866;-4.222;2023-05-29T07:02:20;17.20;76.40
44431;DHT22;30135;47.866;-4.222;2023-05-29T07:04:46;17.20;76.40
44431;DHT22;30135;47.866;-4.222;2023-05-29T07:07:15;17.20;76.30
44431;DHT22;30135;47.866;-4.222;2023-05-29T07:09:41;17.20;76.20
44431;DHT22;30135;47.866;-4.222;2023-05-29T07:12:07;17.30;76.30
44431;DHT22;30135;47.866;-4.222;2023-05-29T07:14:33;17.30;76.30
44431;DHT22;30135;47.866;-4.222;2023-05-29T07:16:59;17.30;76.30
44431;DHT22;30135;47.866;-4.222;2023-05-29T07:19:25;17.40;76.30
44431;DHT22;30135;47.866;-4.222;2023-05-29T07:21:51;17.40;76.30
44431;DHT22;30135;47.866;-4.222;2023-05-29T07:24:17;17.40;76.30
44431;DHT22;30135;47.866;-4.222;2023-05-29T07:26:43;17.40;76.30
44431;DHT22;30135;47.866;-4.222;2023-05-29T07:29:09;17.50;76.40
44431;DHT22;30135;47.866;-4.222;2023-05-29T07:31:36;17.50;76.40
44431;DHT22;30135;47.866;-4.222;2023-05-29T07:34:05;17.50;76.30
44431;DHT22;30135;47.866;-4.222;2023-05-29T07:36:31;17.50;76.40
44431;DHT22;30135;47.866;-4.222;2023-05-29T07:38:57;17.60;76.20
44431;DHT22;30135;47.866;-4.222;2023-05-29T07:41:24;17.60;76.20
44431;DHT22;30135;47.866;-4.222;2023-05-29T07:43:52;17.60;76.30
44431;DHT22;30135;47.866;-4.222;2023-05-29T07:46:19;17.70;76.40
44431;DHT22;30135;47.866;-4.222;2023-05-29T07:48:45;17.70;76.30
44431;DHT22;30135;47.866;-4.222;2023-05-29T07:51:16;17.70;76.30
44431;DHT22;30135;47.866;-4.222;2023-05-29T07:53:44;17.80;76.20
44431;DHT22;30135;47.866;-4.222;2023-05-29T07:56:11;17.80;76.20
44431;DHT22;30135;47.866;-4.222;2023-05-29T07:58:40;17.80;76.00
44431;DHT22;30135;47.866;-4.222;2023-05-29T08:01:06;17.90;76.10
44431;DHT22;30135;47.866;-4.222;2023-05-29T08:03:33;17.90;76.00
44431;DHT22;30135;47.866;-4.222;2023-05-29T08:05:59;18.00;76.10
44431;DHT22;30135;47.866;-4.222;2023-05-29T08:08:25;18.00;76.00
44431;DHT22;30135;47.866;-4.222;2023-05-29T08:10:51;18.00;75.90
44431;DHT22;30135;47.866;-4.222;2023-05-29T08:13:17;18.00;75.90
44431;DHT22;30135;47.866;-4.222;2023-05-29T08:15:43;18.10;76.00
44431;DHT22;30135;47.866;-4.222;2023-05-29T08:18:09;18.20;75.90
44431;DHT22;30135;47.866;-4.222;2023-05-29T08:20:35;18.20;76.60
44431;DHT22;30135;47.866;-4.222;2023-05-29T08:23:01;18.30;75.70
44431;DHT22;30135;47.866;-4.222;2023-05-29T08:25:27;18.30;75.60
44431;DHT22;30135;47.866;-4.222;2023-05-29T08:27:53;18.30;75.50
44431;DHT22;30135;47.866;-4.222;2023-05-29T08:30:19;18.40;75.30
44431;DHT22;30135;47.866;-4.222;2023-05-29T08:32:45;18.50;75.20
44431;DHT22;30135;47.866;-4.222;2023-05-29T08:35:15;18.50;75.20
44431;DHT22;30135;47.866;-4.222;2023-05-29T08:37:41;18.50;75.30
44431;DHT22;30135;47.866;-4.222;2023-05-29T08:40:08;18.50;75.00
44431;DHT22;30135;47.866;-4.222;2023-05-29T08:42:39;18.60;74.90
44431;DHT22;30135;47.866;-4.222;2023-05-29T08:45:12;18.60;74.80
44431;DHT22;30135;47.866;-4.222;2023-05-29T08:47:40;18.60;74.60
44431;DHT22;30135;47.866;-4.222;2023-05-29T08:50:14;18.70;74.60
44431;DHT22;30135;47.866;-4.222;2023-05-29T08:52:40;18.70;74.50
44431;DHT22;30135;47.866;-4.222;2023-05-29T08:55:07;18.80;74.60
44431;DHT22;30135;47.866;-4.222;2023-05-29T08:57:34;18.80;74.80
44431;DHT22;30135;47.866;-4.222;2023-05-29T09:00:02;18.80;74.70
44431;DHT22;30135;47.866;-4.222;2023-05-29T09:02:35;18.90;74.90
44431;DHT22;30135;47.866;-4.222;2023-05-29T09:05:02;19.00;74.90
44431;DHT22;30135;47.866;-4.222;2023-05-29T09:07:29;19.00;74.50
44431;DHT22;30135;47.866;-4.222;2023-05-29T09:09:56;19.00;74.60
44431;DHT22;30135;47.866;-4.222;2023-05-29T09:12:24;19.10;74.50
44431;DHT22;30135;47.866;-4.222;2023-05-29T09:14:50;19.10;74.50
44431;DHT22;30135;47.866;-4.222;2023-05-29T09:17:16;19.10;74.30
44431;DHT22;30135;47.866;-4.222;2023-05-29T09:19:42;19.20;74.20
44431;DHT22;30135;47.866;-4.222;2023-05-29T09:22:12;19.20;74.00
44431;DHT22;30135;47.866;-4.222;2023-05-29T09:24:41;19.20;73.90
44431;DHT22;30135;47.866;-4.222;2023-05-29T09:27:09;19.20;73.90
44431;DHT22;30135;47.866;-4.222;2023-05-29T09:29:39;19.30;73.90
44431;DHT22;30135;47.866;-4.222;2023-05-29T09:32:15;19.30;73.70
44431;DHT22;30135;47.866;-4.222;2023-05-29T09:34:45;19.30;73.30
44431;DHT22;30135;47.866;-4.222;2023-05-29T09:37:12;19.40;73.60
44431;DHT22;30135;47.866;-4.222;2023-05-29T09:39:45;19.40;73.40
44431;DHT22;30135;47.866;-4.222;2023-05-29T09:42:15;19.50;73.20
44431;DHT22;30135;47.866;-4.222;2023-05-29T09:44:44;19.50;73.10
44431;DHT22;30135;47.866;-4.222;2023-05-29T09:47:17;19.40;73.10
44431;DHT22;30135;47.866;-4.222;2023-05-29T09:49:44;19.50;73.20
44431;DHT22;30135;47.866;-4.222;2023-05-29T09:52:15;19.60;73.20
44431;DHT22;30135;47.866;-4.222;2023-05-29T09:54:46;19.60;73.00
44431;DHT22;30135;47.866;-4.222;2023-05-29T09:57:13;19.70;73.00
44431;DHT22;30135;47.866;-4.222;2023-05-29T09:59:44;19.80;73.80
44431;DHT22;30135;47.866;-4.222;2023-05-29T10:02:11;19.80;72.90
44431;DHT22;30135;47.866;-4.222;2023-05-29T10:04:39;19.90;72.60
44431;DHT22;30135;47.866;-4.222;2023-05-29T10:07:27;19.90;72.60
44431;DHT22;30135;47.866;-4.222;2023-05-29T10:09:59;20.00;72.20
44431;DHT22;30135;47.866;-4.222;2023-05-29T10:12:27;20.00;72.40
44431;DHT22;30135;47.866;-4.222;2023-05-29T10:14:56;20.00;72.30
44431;DHT22;30135;47.866;-4.222;2023-05-29T10:17:31;20.00;72.20
44431;DHT22;30135;47.866;-4.222;2023-05-29T10:20:02;20.10;72.10
44431;DHT22;30135;47.866;-4.222;2023-05-29T10:22:32;20.10;72.30
44431;DHT22;30135;47.866;-4.222;2023-05-29T10:25:05;20.20;72.40
44431;DHT22;30135;47.866;-4.222;2023-05-29T10:27:32;20.20;72.50
44431;DHT22;30135;47.866;-4.222;2023-05-29T10:30:11;20.30;72.30
44431;DHT22;30135;47.866;-4.222;2023-05-29T10:33:08;20.40;71.80
44431;DHT22;30135;47.866;-4.222;2023-05-29T10:38:49;20.50;71.90
44431;DHT22;30135;47.866;-4.222;2023-05-29T10:43:58;20.60;71.40
44431;DHT22;30135;47.866;-4.222;2023-05-29T10:49:18;20.60;71.00
44431;DHT22;30135;47.866;-4.222;2023-05-29T10:51:45;20.70;71.40
44431;DHT22;30135;47.866;-4.222;2023-05-29T10:54:11;20.70;70.90
44431;DHT22;30135;47.866;-4.222;2023-05-29T10:56:39;20.70;70.90
44431;DHT22;30135;47.866;-4.222;2023-05-29T10:59:08;20.70;70.80
44431;DHT22;30135;47.866;-4.222;2023-05-29T11:01:34;20.70;70.90
44431;DHT22;30135;47.866;-4.222;2023-05-29T11:06:48;20.80;70.90
44431;DHT22;30135;47.866;-4.222;2023-05-29T11:12:14;20.80;70.50
44431;DHT22;30135;47.866;-4.222;2023-05-29T11:15:05;20.80;69.80
44431;DHT22;30135;47.866;-4.222;2023-05-29T11:17:43;20.80;69.90
44431;DHT22;30135;47.866;-4.222;2023-05-29T11:23:05;20.90;69.50
44431;DHT22;30135;47.866;-4.222;2023-05-29T11:25:35;20.90;69.80
44431;DHT22;30135;47.866;-4.222;2023-05-29T11:28:04;20.90;70.10
44431;DHT22;30135;47.866;-4.222;2023-05-29T11:30:45;20.90;69.80
44431;DHT22;30135;47.866;-4.222;2023-05-29T11:33:19;21.00;69.90
44431;DHT22;30135;47.866;-4.222;2023-05-29T11:35:57;21.10;69.60
44431;DHT22;30135;47.866;-4.222;2023-05-29T11:38:25;21.20;69.20
44431;DHT22;30135;47.866;-4.222;2023-05-29T11:40:53;21.30;69.10
44431;DHT22;30135;47.866;-4.222;2023-05-29T11:43:20;21.30;68.80
44431;DHT22;30135;47.866;-4.222;2023-05-29T11:45:46;21.40;68.60
44431;DHT22;30135;47.866;-4.222;2023-05-29T11:48:12;21.50;68.40
44431;DHT22;30135;47.866;-4.222;2023-05-29T11:50:39;21.50;68.00
44431;DHT22;30135;47.866;-4.222;2023-05-29T11:53:06;21.60;68.00
44431;DHT22;30135;47.866;-4.222;2023-05-29T11:55:33;21.60;67.90
44431;DHT22;30135;47.866;-4.222;2023-05-29T11:58:01;21.70;67.90
44431;DHT22;30135;47.866;-4.222;2023-05-29T12:00:35;21.80;67.90
44431;DHT22;30135;47.866;-4.222;2023-05-29T12:03:03;21.80;67.30
44431;DHT22;30135;47.866;-4.222;2023-05-29T12:05:47;21.80;67.00
44431;DHT22;30135;47.866;-4.222;2023-05-29T12:08:15;21.90;66.00
44431;DHT22;30135;47.866;-4.222;2023-05-29T12:10:51;21.90;66.50
44431;DHT22;30135;47.866;-4.222;2023-05-29T12:13:21;22.00;65.40
44431;DHT22;30135;47.866;-4.222;2023-05-29T12:15:54;22.10;65.60
44431;DHT22;30135;47.866;-4.222;2023-05-29T12:18:24;22.10;65.70
44431;DHT22;30135;47.866;-4.222;2023-05-29T12:20:56;22.20;65.40
44431;DHT22;30135;47.866;-4.222;2023-05-29T12:23:22;22.30;65.50
44431;DHT22;30135;47.866;-4.222;2023-05-29T12:25:51;22.30;65.40
44431;DHT22;30135;47.866;-4.222;2023-05-29T12:28:18;22.40;65.50
44431;DHT22;30135;47.866;-4.222;2023-05-29T12:30:46;22.50;66.00
44431;DHT22;30135;47.866;-4.222;2023-05-29T12:35:53;22.60;64.40
44431;DHT22;30135;47.866;-4.222;2023-05-29T12:38:20;22.70;64.70
44431;DHT22;30135;47.866;-4.222;2023-05-29T12:40:49;22.70;64.00
44431;DHT22;30135;47.866;-4.222;2023-05-29T12:43:16;22.70;63.70
44431;DHT22;30135;47.866;-4.222;2023-05-29T12:45:42;22.80;63.60
44431;DHT22;30135;47.866;-4.222;2023-05-29T12:48:08;22.80;63.30
44431;DHT22;30135;47.866;-4.222;2023-05-29T12:50:40;22.90;63.10
44431;DHT22;30135;47.866;-4.222;2023-05-29T12:53:13;22.90;63.10
44431;DHT22;30135;47.866;-4.222;2023-05-29T12:55:42;23.00;62.60
44431;DHT22;30135;47.866;-4.222;2023-05-29T12:58:12;23.00;62.20
44431;DHT22;30135;47.866;-4.222;2023-05-29T13:00:45;23.10;62.00
44431;DHT22;30135;47.866;-4.222;2023-05-29T13:03:12;23.10;61.80
44431;DHT22;30135;47.866;-4.222;2023-05-29T13:05:38;23.20;61.80
44431;DHT22;30135;47.866;-4.222;2023-05-29T13:08:06;23.20;61.50
44431;DHT22;30135;47.866;-4.222;2023-05-29T13:10:32;23.30;61.40
44431;DHT22;30135;47.866;-4.222;2023-05-29T13:13:00;23.30;61.00
44431;DHT22;30135;47.866;-4.222;2023-05-29T13:15:26;23.30;60.80
44431;DHT22;30135;47.866;-4.222;2023-05-29T13:17:52;23.30;60.40
44431;DHT22;30135;47.866;-4.222;2023-05-29T13:20:19;23.40;60.60
44431;DHT22;30135;47.866;-4.222;2023-05-29T13:22:47;23.40;60.00
44431;DHT22;30135;47.866;-4.222;2023-05-29T13:25:14;23.40;59.90
44431;DHT22;30135;47.866;-4.222;2023-05-29T13:27:46;23.50;60.00
44431;DHT22;30135;47.866;-4.222;2023-05-29T13:30:14;23.50;59.90
44431;DHT22;30135;47.866;-4.222;2023-05-29T13:32:41;23.60;60.10
44431;DHT22;30135;47.866;-4.222;2023-05-29T13:35:07;23.60;59.90
44431;DHT22;30135;47.866;-4.222;2023-05-29T13:37:35;23.60;59.70
44431;DHT22;30135;47.866;-4.222;2023-05-29T13:40:02;23.70;59.40
44431;DHT22;30135;47.866;-4.222;2023-05-29T13:42:29;23.70;59.60
44431;DHT22;30135;47.866;-4.222;2023-05-29T13:44:56;23.80;59.70
44431;DHT22;30135;47.866;-4.222;2023-05-29T13:47:22;23.90;59.40
44431;DHT22;30135;47.866;-4.222;2023-05-29T13:49:48;23.90;58.90
44431;DHT22;30135;47.866;-4.222;2023-05-29T13:52:14;23.90;58.90
44431;DHT22;30135;47.866;-4.222;2023-05-29T13:54:43;23.90;59.00
44431;DHT22;30135;47.866;-4.222;2023-05-29T13:57:09;23.90;58.40
44431;DHT22;30135;47.866;-4.222;2023-05-29T13:59:35;23.90;58.10
44431;DHT22;30135;47.866;-4.222;2023-05-29T14:02:02;23.90;58.20
44431;DHT22;30135;47.866;-4.222;2023-05-29T14:04:29;23.90;58.10
44431;DHT22;30135;47.866;-4.222;2023-05-29T14:06:56;24.00;58.10
44431;DHT22;30135;47.866;-4.222;2023-05-29T14:09:23;24.00;57.90
44431;DHT22;30135;47.866;-4.222;2023-05-29T14:11:56;24.00;58.00
44431;DHT22;30135;47.866;-4.222;2023-05-29T14:14:24;24.00;57.80
44431;DHT22;30135;47.866;-4.222;2023-05-29T14:16:50;24.00;57.90
44431;DHT22;30135;47.866;-4.222;2023-05-29T14:19:23;24.00;57.90
44431;DHT22;30135;47.866;-4.222;2023-05-29T14:21:50;24.00;57.90
44431;DHT22;30135;47.866;-4.222;2023-05-29T14:24:16;24.00;57.70
44431;DHT22;30135;47.866;-4.222;2023-05-29T14:26:44;24.00;58.00
44431;DHT22;30135;47.866;-4.222;2023-05-29T14:29:13;24.00;58.10
44431;DHT22;30135;47.866;-4.222;2023-05-29T14:31:40;24.00;57.80
44431;DHT22;30135;47.866;-4.222;2023-05-29T14:34:07;24.00;57.60
44431;DHT22;30135;47.866;-4.222;2023-05-29T14:36:33;24.00;57.30
44431;DHT22;30135;47.866;-4.222;2023-05-29T14:38:59;24.00;57.40
44431;DHT22;30135;47.866;-4.222;2023-05-29T14:41:25;24.00;57.40
44431;DHT22;30135;47.866;-4.222;2023-05-29T14:43:52;24.00;57.30
44431;DHT22;30135;47.866;-4.222;2023-05-29T14:46:18;24.00;57.40
44431;DHT22;30135;47.866;-4.222;2023-05-29T14:48:44;24.00;57.20
44431;DHT22;30135;47.866;-4.222;2023-05-29T14:51:12;24.00;57.30
44431;DHT22;30135;47.866;-4.222;2023-05-29T14:53:39;24.00;57.60
44431;DHT22;30135;47.866;-4.222;2023-05-29T14:56:05;24.00;57.40
44431;DHT22;30135;47.866;-4.222;2023-05-29T14:58:31;24.00;57.50
44431;DHT22;30135;47.866;-4.222;2023-05-29T15:00:57;24.00;57.50
44431;DHT22;30135;47.866;-4.222;2023-05-29T15:03:26;24.00;57.40
44431;DHT22;30135;47.866;-4.222;2023-05-29T15:05:53;24.00;57.40
44431;DHT22;30135;47.866;-4.222;2023-05-29T15:08:20;24.00;57.40
44431;DHT22;30135;47.866;-4.222;2023-05-29T15:10:46;24.00;57.40
44431;DHT22;30135;47.866;-4.222;2023-05-29T15:13:12;24.00;57.30
44431;DHT22;30135;47.866;-4.222;2023-05-29T15:15:41;24.00;57.20
44431;DHT22;30135;47.866;-4.222;2023-05-29T15:18:07;23.90;57.20
44431;DHT22;30135;47.866;-4.222;2023-05-29T15:20:33;23.90;57.20
44431;DHT22;30135;47.866;-4.222;2023-05-29T15:23:00;23.90;57.00
44431;DHT22;30135;47.866;-4.222;2023-05-29T15:25:26;23.90;57.20
44431;DHT22;30135;47.866;-4.222;2023-05-29T15:27:52;23.90;57.00
44431;DHT22;30135;47.866;-4.222;2023-05-29T15:30:19;23.80;57.10
44431;DHT22;30135;47.866;-4.222;2023-05-29T15:32:46;23.80;57.10
44431;DHT22;30135;47.866;-4.222;2023-05-29T15:35:16;23.80;57.20
44431;DHT22;30135;47.866;-4.222;2023-05-29T15:37:43;23.80;57.30
44431;DHT22;30135;47.866;-4.222;2023-05-29T15:40:11;23.70;57.40
44431;DHT22;30135;47.866;-4.222;2023-05-29T15:42:37;23.70;57.60
44431;DHT22;30135;47.866;-4.222;2023-05-29T15:45:04;23.70;58.20